sensor_id;sensor_type;location;lat;lon;timestamp;P1;durP1;ratioP1;P2;durP2;ratioP2
69244;SDS011;56357;52.304;4.870;2023-01-01T00:01:34;12.90;;;7.40;;
69244;SDS011;56357;52.304;4.870;2023-01-01T00:04:04;15.75;;;8.05;;
69244;SDS011;56357;52.304;4.870;2023-01-01T00:06:33;14.77;;;7.10;;
69244;SDS011;56357;52.304;4.870;2023-01-01T00:09:00;22.95;;;13.13;;
69244;SDS011;56357;52.304;4.870;2023-01-01T00:11:44;12.48;;;7.72;;
69244;SDS011;56357;52.304;4.870;2023-01-01T00:14:10;13.13;;;8.25;;
69244;SDS011;56357;52.304;4.870;2023-01-01T00:16:37;15.55;;;9.85;;
69244;SDS011;56357;52.304;4.870;2023-01-01T00:19:04;14.18;;;8.23;;
69244;SDS011;56357;52.304;4.870;2023-01-01T00:21:30;16.45;;;10.65;;
69244;SDS011;56357;52.304;4.870;2023-01-01T00:23:57;17.05;;;9.25;;
69244;SDS011;56357;52.304;4.870;2023-01-01T00:26:23;14.30;;;8.55;;
69244;SDS011;56357;52.304;4.870;2023-01-01T00:28:51;14.80;;;9.40;;
69244;SDS011;56357;52.304;4.870;2023-01-01T00:31:18;13.23;;;8.48;;
69244;SDS011;56357;52.304;4.870;2023-01-01T00:33:51;13.40;;;8.52;;
69244;SDS011;56357;52.304;4.870;2023-01-01T00:36:20;18.23;;;10.98;;
69244;SDS011;56357;52.304;4.870;2023-01-01T00:38:47;17.88;;;10.82;;
69244;SDS011;56357;52.304;4.870;2023-01-01T00:41:14;15.75;;;9.90;;
69244;SDS011;56357;52.304;4.870;2023-01-01T00:43:42;16.08;;;9.07;;
69244;SDS011;56357;52.304;4.870;2023-01-01T00:46:10;19.02;;;11.75;;
69244;SDS011;56357;52.304;4.870;2023-01-01T00:48:37;15.52;;;9.02;;
69244;SDS011;56357;52.304;4.870;2023-01-01T00:51:04;17.38;;;10.32;;
69244;SDS011;56357;52.304;4.870;2023-01-01T00:53:30;15.70;;;9.52;;
69244;SDS011;56357;52.304;4.870;2023-01-01T00:55:57;16.30;;;9.65;;
69244;SDS011;56357;52.304;4.870;2023-01-01T00:58:23;16.23;;;9.73;;
69244;SDS011;56357;52.304;4.870;2023-01-01T01:00:50;14.63;;;9.60;;
69244;SDS011;56357;52.304;4.870;2023-01-01T01:03:18;15.57;;;10.07;;
69244;SDS011;56357;52.304;4.870;2023-01-01T01:08:29;17.20;;;10.00;;
69244;SDS011;56357;52.304;4.870;2023-01-01T01:11:04;16.05;;;9.93;;
69244;SDS011;56357;52.304;4.870;2023-01-01T01:13:33;16.20;;;9.90;;
69244;SDS011;56357;52.304;4.870;2023-01-01T01:16:00;14.85;;;9.32;;
69244;SDS011;56357;52.304;4.870;2023-01-01T01:18:32;17.45;;;9.75;;
69244;SDS011;56357;52.304;4.870;2023-01-01T01:20:58;16.67;;;9.45;;
69244;SDS011;56357;52.304;4.870;2023-01-01T01:23:25;17.27;;;9.83;;
69244;SDS011;56357;52.304;4.870;2023-01-01T01:25:51;15.40;;;10.10;;
69244;SDS011;56357;52.304;4.870;2023-01-01T01:28:18;16.58;;;9.95;;
69244;SDS011;56357;52.304;4.870;2023-01-01T01:30:44;18.05;;;8.77;;
69244;SDS011;56357;52.304;4.870;2023-01-01T01:33:10;16.20;;;10.10;;
69244;SDS011;56357;52.304;4.870;2023-01-01T01:35:37;15.73;;;9.48;;
69244;SDS011;56357;52.304;4.870;2023-01-01T01:38:03;16.17;;;8.93;;
69244;SDS011;56357;52.304;4.870;2023-01-01T01:40:30;16.90;;;9.38;;
69244;SDS011;56357;52.304;4.870;2023-01-01T01:42:58;15.55;;;8.98;;
69244;SDS011;56357;52.304;4.870;2023-01-01T01:45:24;16.08;;;9.38;;
69244;SDS011;56357;52.304;4.870;2023-01-01T01:47:52;14.18;;;9.60;;
69244;SDS011;56357;52.304;4.870;2023-01-01T01:50:24;16.63;;;9.43;;
69244;SDS011;56357;52.304;4.870;2023-01-01T01:53:08;15.32;;;8.85;;
69244;SDS011;56357;52.304;4.870;2023-01-01T01:55:43;13.73;;;8.55;;
69244;SDS011;56357;52.304;4.870;2023-01-01T01:58:13;16.70;;;9.70;;
69244;SDS011;56357;52.304;4.870;2023-01-01T02:00:41;14.40;;;8.80;;
69244;SDS011;56357;52.304;4.870;2023-01-01T02:03:09;15.20;;;9.23;;
69244;SDS011;56357;52.304;4.870;2023-01-01T02:05:39;17.25;;;9.65;;
69244;SDS011;56357;52.304;4.870;2023-01-01T02:08:06;15.32;;;8.15;;
69244;SDS011;56357;52.304;4.870;2023-01-01T02:10:36;16.40;;;8.80;;
69244;SDS011;56357;52.304;4.870;2023-01-01T02:13:02;16.27;;;9.63;;
69244;SDS011;56357;52.304;4.870;2023-01-01T02:15:29;14.70;;;8.05;;
69244;SDS011;56357;52.304;4.870;2023-01-01T02:26:07;14.20;;;9.13;;
69244;SDS011;56357;52.304;4.870;2023-01-01T02:28:48;14.77;;;8.40;;
69244;SDS011;56357;52.304;4.870;2023-01-01T02:31:18;14.85;;;7.85;;
69244;SDS011;56357;52.304;4.870;2023-01-01T02:33:49;14.07;;;7.88;;
69244;SDS011;56357;52.304;4.870;2023-01-01T02:36:18;15.02;;;8.18;;
69244;SDS011;56357;52.304;4.870;2023-01-01T02:38:49;12.70;;;6.78;;
69244;SDS011;56357;52.304;4.870;2023-01-01T02:41:19;13.93;;;7.95;;
69244;SDS011;56357;52.304;4.870;2023-01-01T02:43:50;14.52;;;8.07;;
69244;SDS011;56357;52.304;4.870;2023-01-01T02:46:16;12.65;;;7.00;;
69244;SDS011;56357;52.304;4.870;2023-01-01T02:48:44;12.43;;;7.22;;
69244;SDS011;56357;52.304;4.870;2023-01-01T02:56:56;11.32;;;7.30;;
69244;SDS011;56357;52.304;4.870;2023-01-01T03:02:49;11.98;;;7.10;;
69244;SDS011;56357;52.304;4.870;2023-01-01T03:05:32;15.75;;;7.63;;
69244;SDS011;56357;52.304;4.870;2023-01-01T03:10:43;13.50;;;6.93;;
69244;SDS011;56357;52.304;4.870;2023-01-01T03:21:12;12.48;;;6.15;;
69244;SDS011;56357;52.304;4.870;2023-01-01T03:23:44;11.45;;;6.68;;
69244;SDS011;56357;52.304;4.870;2023-01-01T03:26:14;12.48;;;6.60;;
69244;SDS011;56357;52.304;4.870;2023-01-01T03:28:49;12.27;;;6.70;;
69244;SDS011;56357;52.304;4.870;2023-01-01T03:31:21;12.75;;;6.80;;
69244;SDS011;56357;52.304;4.870;2023-01-01T03:33:59;10.88;;;6.18;;
69244;SDS011;56357;52.304;4.870;2023-01-01T03:36:30;11.35;;;6.47;;
69244;SDS011;56357;52.304;4.870;2023-01-01T03:39:00;11.20;;;6.60;;
69244;SDS011;56357;52.304;4.870;2023-01-01T03:44:49;11.37;;;5.50;;
69244;SDS011;56357;52.304;4.870;2023-01-01T03:47:21;10.95;;;6.18;;
69244;SDS011;56357;52.304;4.870;2023-01-01T03:49:48;8.88;;;5.55;;
69244;SDS011;56357;52.304;4.870;2023-01-01T03:55:11;14.38;;;6.20;;
69244;SDS011;56357;52.304;4.870;2023-01-01T04:00:42;12.63;;;5.32;;
69244;SDS011;56357;52.304;4.870;2023-01-01T04:03:18;11.43;;;5.35;;
69244;SDS011;56357;52.304;4.870;2023-01-01T04:05:48;10.05;;;5.50;;
69244;SDS011;56357;52.304;4.870;2023-01-01T04:08:15;9.68;;;5.75;;
69244;SDS011;56357;52.304;4.870;2023-01-01T04:10:44;10.05;;;5.90;;
69244;SDS011;56357;52.304;4.870;2023-01-01T04:13:14;12.98;;;6.70;;
69244;SDS011;56357;52.304;4.870;2023-01-01T04:15:40;11.77;;;5.63;;
69244;SDS011;56357;52.304;4.870;2023-01-01T04:18:07;9.98;;;5.18;;
69244;SDS011;56357;52.304;4.870;2023-01-01T04:20:33;12.40;;;4.85;;
69244;SDS011;56357;52.304;4.870;2023-01-01T04:23:00;12.65;;;6.25;;
69244;SDS011;56357;52.304;4.870;2023-01-01T04:25:27;12.23;;;5.95;;
69244;SDS011;56357;52.304;4.870;2023-01-01T04:27:55;10.65;;;4.53;;
69244;SDS011;56357;52.304;4.870;2023-01-01T04:30:22;9.32;;;4.03;;
69244;SDS011;56357;52.304;4.870;2023-01-01T04:32:48;10.00;;;5.18;;
69244;SDS011;56357;52.304;4.870;2023-01-01T04:35:15;10.65;;;4.20;;
69244;SDS011;56357;52.304;4.870;2023-01-01T04:37:42;8.45;;;4.47;;
69244;SDS011;56357;52.304;4.870;2023-01-01T04:40:10;9.88;;;5.13;;
69244;SDS011;56357;52.304;4.870;2023-01-01T04:42:37;10.38;;;4.80;;
69244;SDS011;56357;52.304;4.870;2023-01-01T04:45:04;8.85;;;4.93;;
69244;SDS011;56357;52.304;4.870;2023-01-01T04:47:31;9.73;;;5.00;;
69244;SDS011;56357;52.304;4.870;2023-01-01T04:49:58;8.93;;;4.70;;
69244;SDS011;56357;52.304;4.870;2023-01-01T04:52:24;10.82;;;4.53;;
69244;SDS011;56357;52.304;4.870;2023-01-01T04:54:51;9.45;;;4.70;;
69244;SDS011;56357;52.304;4.870;2023-01-01T04:57:17;10.02;;;4.80;;
69244;SDS011;56357;52.304;4.870;2023-01-01T04:59:44;11.43;;;4.30;;
69244;SDS011;56357;52.304;4.870;2023-01-01T05:02:10;8.90;;;3.58;;
69244;SDS011;56357;52.304;4.870;2023-01-01T05:04:37;7.72;;;4.20;;
69244;SDS011;56357;52.304;4.870;2023-01-01T05:07:03;9.25;;;4.50;;
69244;SDS011;56357;52.304;4.870;2023-01-01T05:09:29;8.15;;;3.67;;
69244;SDS011;56357;52.304;4.870;2023-01-01T05:11:56;9.23;;;4.30;;
69244;SDS011;56357;52.304;4.870;2023-01-01T05:14:22;8.20;;;4.47;;
69244;SDS011;56357;52.304;4.870;2023-01-01T05:16:49;9.52;;;4.03;;
69244;SDS011;56357;52.304;4.870;2023-01-01T05:19:15;9.77;;;3.83;;
69244;SDS011;56357;52.304;4.870;2023-01-01T05:21:41;8.77;;;4.10;;
69244;SDS011;56357;52.304;4.870;2023-01-01T05:24:09;8.33;;;3.83;;
69244;SDS011;56357;52.304;4.870;2023-01-01T05:26:37;8.75;;;3.72;;
69244;SDS011;56357;52.304;4.870;2023-01-01T05:29:06;10.25;;;3.88;;
69244;SDS011;56357;52.304;4.870;2023-01-01T05:31:33;8.15;;;3.80;;
69244;SDS011;56357;52.304;4.870;2023-01-01T05:34:01;10.20;;;3.50;;
69244;SDS011;56357;52.304;4.870;2023-01-01T05:36:33;8.57;;;4.28;;
69244;SDS011;56357;52.304;4.870;2023-01-01T05:39:02;8.65;;;3.90;;
69244;SDS011;56357;52.304;4.870;2023-01-01T05:41:32;8.18;;;3.25;;
69244;SDS011;56357;52.304;4.870;2023-01-01T05:44:00;8.15;;;3.88;;
69244;SDS011;56357;52.304;4.870;2023-01-01T05:46:27;7.07;;;3.53;;
69244;SDS011;56357;52.304;4.870;2023-01-01T05:48:54;8.87;;;3.83;;
69244;SDS011;56357;52.304;4.870;2023-01-01T05:51:21;10.45;;;3.42;;
69244;SDS011;56357;52.304;4.870;2023-01-01T05:53:50;6.85;;;3.13;;
69244;SDS011;56357;52.304;4.870;2023-01-01T05:56:16;8.73;;;3.28;;
69244;SDS011;56357;52.304;4.870;2023-01-01T05:58:43;6.57;;;3.05;;
69244;SDS011;56357;52.304;4.870;2023-01-01T06:01:32;8.87;;;3.40;;
69244;SDS011;56357;52.304;4.870;2023-01-01T06:03:58;7.75;;;3.25;;
69244;SDS011;56357;52.304;4.870;2023-01-01T06:06:29;6.85;;;3.25;;
69244;SDS011;56357;52.304;4.870;2023-01-01T06:09:00;11.02;;;3.30;;
69244;SDS011;56357;52.304;4.870;2023-01-01T06:11:29;7.95;;;3.10;;
69244;SDS011;56357;52.304;4.870;2023-01-01T06:13:57;8.00;;;2.90;;
69244;SDS011;56357;52.304;4.870;2023-01-01T06:16:25;10.30;;;2.85;;
69244;SDS011;56357;52.304;4.870;2023-01-01T06:18:53;6.70;;;2.80;;
69244;SDS011;56357;52.304;4.870;2023-01-01T06:21:20;9.10;;;3.38;;
69244;SDS011;56357;52.304;4.870;2023-01-01T06:23:49;9.18;;;2.63;;
69244;SDS011;56357;52.304;4.870;2023-01-01T06:26:16;9.50;;;2.95;;
69244;SDS011;56357;52.304;4.870;2023-01-01T06:28:43;7.95;;;2.53;;
69244;SDS011;56357;52.304;4.870;2023-01-01T06:31:11;8.43;;;2.60;;
69244;SDS011;56357;52.304;4.870;2023-01-01T06:33:40;9.27;;;3.03;;
69244;SDS011;56357;52.304;4.870;2023-01-01T06:36:08;8.32;;;3.25;;
69244;SDS011;56357;52.304;4.870;2023-01-01T06:38:38;9.18;;;2.70;;
69244;SDS011;56357;52.304;4.870;2023-01-01T06:41:07;6.18;;;2.90;;
69244;SDS011;56357;52.304;4.870;2023-01-01T06:43:36;7.82;;;2.60;;
69244;SDS011;56357;52.304;4.870;2023-01-01T06:48:34;10.75;;;2.95;;
69244;SDS011;56357;52.304;4.870;2023-01-01T06:51:05;7.68;;;2.65;;
69244;SDS011;56357;52.304;4.870;2023-01-01T06:53:34;6.25;;;2.70;;
69244;SDS011;56357;52.304;4.870;2023-01-01T06:56:01;7.72;;;2.60;;
69244;SDS011;56357;52.304;4.870;2023-01-01T06:58:27;5.68;;;2.10;;
69244;SDS011;56357;52.304;4.870;2023-01-01T07:00:54;7.43;;;2.53;;
69244;SDS011;56357;52.304;4.870;2023-01-01T07:03:28;10.27;;;2.90;;
69244;SDS011;56357;52.304;4.870;2023-01-01T07:05:55;9.82;;;2.42;;
69244;SDS011;56357;52.304;4.870;2023-01-01T07:08:21;9.45;;;2.60;;
69244;SDS011;56357;52.304;4.870;2023-01-01T07:10:48;7.18;;;3.08;;
69244;SDS011;56357;52.304;4.870;2023-01-01T07:13:14;7.45;;;2.22;;
69244;SDS011;56357;52.304;4.870;2023-01-01T07:15:41;7.75;;;2.53;;
69244;SDS011;56357;52.304;4.870;2023-01-01T07:18:08;8.10;;;2.22;;
69244;SDS011;56357;52.304;4.870;2023-01-01T07:20:35;6.63;;;2.35;;
69244;SDS011;56357;52.304;4.870;2023-01-01T07:23:01;8.48;;;2.20;;
69244;SDS011;56357;52.304;4.870;2023-01-01T07:25:27;9.88;;;2.47;;
69244;SDS011;56357;52.304;4.870;2023-01-01T07:27:54;6.97;;;2.00;;
69244;SDS011;56357;52.304;4.870;2023-01-01T07:30:20;8.48;;;2.20;;
69244;SDS011;56357;52.304;4.870;2023-01-01T07:32:48;8.05;;;2.10;;
69244;SDS011;56357;52.304;4.870;2023-01-01T07:35:19;7.65;;;2.65;;
69244;SDS011;56357;52.304;4.870;2023-01-01T07:37:46;7.45;;;2.17;;
69244;SDS011;56357;52.304;4.870;2023-01-01T07:40:12;6.45;;;2.13;;
69244;SDS011;56357;52.304;4.870;2023-01-01T07:42:39;8.63;;;2.08;;
69244;SDS011;56357;52.304;4.870;2023-01-01T07:45:05;9.40;;;2.10;;
69244;SDS011;56357;52.304;4.870;2023-01-01T07:47:32;10.73;;;2.22;;
69244;SDS011;56357;52.304;4.870;2023-01-01T07:49:58;9.57;;;2.55;;
69244;SDS011;56357;52.304;4.870;2023-01-01T07:52:25;5.43;;;1.90;;
69244;SDS011;56357;52.304;4.870;2023-01-01T07:54:51;7.10;;;2.22;;
69244;SDS011;56357;52.304;4.870;2023-01-01T07:57:17;7.00;;;1.73;;
69244;SDS011;56357;52.304;4.870;2023-01-01T07:59:44;7.22;;;2.00;;
69244;SDS011;56357;52.304;4.870;2023-01-01T08:02:11;6.70;;;2.05;;
69244;SDS011;56357;52.304;4.870;2023-01-01T08:04:37;6.57;;;2.05;;
69244;SDS011;56357;52.304;4.870;2023-01-01T08:07:04;7.53;;;1.98;;
69244;SDS011;56357;52.304;4.870;2023-01-01T08:09:31;5.97;;;1.60;;
69244;SDS011;56357;52.304;4.870;2023-01-01T08:11:57;6.05;;;1.90;;
69244;SDS011;56357;52.304;4.870;2023-01-01T08:14:23;6.75;;;1.67;;
69244;SDS011;56357;52.304;4.870;2023-01-01T08:16:50;6.60;;;1.77;;
69244;SDS011;56357;52.304;4.870;2023-01-01T08:19:17;5.70;;;1.50;;
69244;SDS011;56357;52.304;4.870;2023-01-01T08:21:43;9.85;;;1.98;;
69244;SDS011;56357;52.304;4.870;2023-01-01T08:24:09;7.45;;;1.90;;
69244;SDS011;56357;52.304;4.870;2023-01-01T08:26:36;8.65;;;2.17;;
69244;SDS011;56357;52.304;4.870;2023-01-01T08:29:04;8.90;;;2.03;;
69244;SDS011;56357;52.304;4.870;2023-01-01T08:31:32;7.15;;;2.05;;
69244;SDS011;56357;52.304;4.870;2023-01-01T08:33:58;7.15;;;1.70;;
69244;SDS011;56357;52.304;4.870;2023-01-01T08:36:25;6.15;;;1.80;;
69244;SDS011;56357;52.304;4.870;2023-01-01T08:38:51;6.03;;;1.35;;
69244;SDS011;56357;52.304;4.870;2023-01-01T08:41:18;7.88;;;1.67;;
69244;SDS011;56357;52.304;4.870;2023-01-01T08:43:44;6.07;;;1.60;;
69244;SDS011;56357;52.304;4.870;2023-01-01T08:46:11;7.32;;;1.70;;
69244;SDS011;56357;52.304;4.870;2023-01-01T08:48:37;5.88;;;1.45;;
69244;SDS011;56357;52.304;4.870;2023-01-01T08:51:04;8.05;;;1.25;;
69244;SDS011;56357;52.304;4.870;2023-01-01T08:53:30;5.95;;;1.77;;
69244;SDS011;56357;52.304;4.870;2023-01-01T08:55:59;5.57;;;1.70;;
69244;SDS011;56357;52.304;4.870;2023-01-01T08:58:31;4.97;;;1.40;;
69244;SDS011;56357;52.304;4.870;2023-01-01T09:00:58;6.95;;;1.27;;
69244;SDS011;56357;52.304;4.870;2023-01-01T09:03:25;6.85;;;1.50;;
69244;SDS011;56357;52.304;4.870;2023-01-01T09:05:52;7.10;;;1.48;;
69244;SDS011;56357;52.304;4.870;2023-01-01T09:08:19;4.97;;;1.35;;
69244;SDS011;56357;52.304;4.870;2023-01-01T09:10:46;7.53;;;1.85;;
69244;SDS011;56357;52.304;4.870;2023-01-01T09:13:14;6.18;;;1.48;;
69244;SDS011;56357;52.304;4.870;2023-01-01T09:15:43;5.32;;;1.25;;
69244;SDS011;56357;52.304;4.870;2023-01-01T09:18:10;7.17;;;1.57;;
69244;SDS011;56357;52.304;4.870;2023-01-01T09:20:37;6.22;;;1.60;;
69244;SDS011;56357;52.304;4.870;2023-01-01T09:23:04;5.55;;;1.50;;
69244;SDS011;56357;52.304;4.870;2023-01-01T09:25:31;7.90;;;1.33;;
69244;SDS011;56357;52.304;4.870;2023-01-01T09:30:29;5.43;;;1.08;;
69244;SDS011;56357;52.304;4.870;2023-01-01T09:32:56;6.63;;;1.35;;
69244;SDS011;56357;52.304;4.870;2023-01-01T09:35:22;5.68;;;1.30;;
69244;SDS011;56357;52.304;4.870;2023-01-01T09:37:49;5.80;;;1.38;;
69244;SDS011;56357;52.304;4.870;2023-01-01T09:40:31;10.50;;;1.65;;
69244;SDS011;56357;52.304;4.870;2023-01-01T09:43:17;6.13;;;1.40;;
69244;SDS011;56357;52.304;4.870;2023-01-01T09:45:54;8.00;;;1.20;;
69244;SDS011;56357;52.304;4.870;2023-01-01T09:48:21;5.95;;;1.27;;
69244;SDS011;56357;52.304;4.870;2023-01-01T09:50:49;4.88;;;1.00;;
69244;SDS011;56357;52.304;4.870;2023-01-01T09:54:19;7.50;;;1.00;;
69244;SDS011;56357;52.304;4.870;2023-01-01T09:56:27;6.07;;;0.97;;
69244;SDS011;56357;52.304;4.870;2023-01-01T09:58:55;6.55;;;1.10;;
69244;SDS011;56357;52.304;4.870;2023-01-01T10:01:31;7.53;;;1.40;;
69244;SDS011;56357;52.304;4.870;2023-01-01T10:04:14;6.63;;;1.30;;
69244;SDS011;56357;52.304;4.870;2023-01-01T10:10:12;5.68;;;0.98;;
69244;SDS011;56357;52.304;4.870;2023-01-01T10:15:37;5.93;;;1.38;;
69244;SDS011;56357;52.304;4.870;2023-01-01T10:18:19;6.80;;;1.05;;
69244;SDS011;56357;52.304;4.870;2023-01-01T10:20:57;5.95;;;1.20;;
69244;SDS011;56357;52.304;4.870;2023-01-01T10:23:34;6.27;;;1.30;;
69244;SDS011;56357;52.304;4.870;2023-01-01T10:26:15;6.72;;;1.08;;
69244;SDS011;56357;52.304;4.870;2023-01-01T10:28:50;5.28;;;0.93;;
69244;SDS011;56357;52.304;4.870;2023-01-01T10:31:37;5.07;;;0.80;;
69244;SDS011;56357;52.304;4.870;2023-01-01T10:34:22;5.40;;;1.10;;
69244;SDS011;56357;52.304;4.870;2023-01-01T10:36:51;7.10;;;1.25;;
69244;SDS011;56357;52.304;4.870;2023-01-01T10:39:20;4.65;;;0.93;;
69244;SDS011;56357;52.304;4.870;2023-01-01T10:41:47;5.32;;;0.85;;
69244;SDS011;56357;52.304;4.870;2023-01-01T10:44:15;6.22;;;1.30;;
69244;SDS011;56357;52.304;4.870;2023-01-01T10:46:49;8.65;;;1.33;;
69244;SDS011;56357;52.304;4.870;2023-01-01T10:49:21;5.47;;;1.00;;
69244;SDS011;56357;52.304;4.870;2023-01-01T10:51:48;5.53;;;0.90;;
69244;SDS011;56357;52.304;4.870;2023-01-01T10:54:33;7.57;;;1.45;;
69244;SDS011;56357;52.304;4.870;2023-01-01T10:57:12;5.40;;;1.10;;
69244;SDS011;56357;52.304;4.870;2023-01-01T11:00:14;3.92;;;1.00;;
69244;SDS011;56357;52.304;4.870;2023-01-01T11:08:29;6.15;;;0.88;;
69244;SDS011;56357;52.304;4.870;2023-01-01T11:10:58;7.20;;;1.13;;
69244;SDS011;56357;52.304;4.870;2023-01-01T11:13:27;5.97;;;1.33;;
69244;SDS011;56357;52.304;4.870;2023-01-01T11:15:54;5.15;;;1.10;;
69244;SDS011;56357;52.304;4.870;2023-01-01T11:18:26;5.15;;;1.42;;
69244;SDS011;56357;52.304;4.870;2023-01-01T11:20:59;5.75;;;0.93;;
69244;SDS011;56357;52.304;4.870;2023-01-01T11:23:28;6.45;;;1.45;;
69244;SDS011;56357;52.304;4.870;2023-01-01T11:26:00;4.90;;;1.02;;
69244;SDS011;56357;52.304;4.870;2023-01-01T11:28:32;5.97;;;1.20;;
69244;SDS011;56357;52.304;4.870;2023-01-01T11:33:34;7.45;;;1.10;;
69244;SDS011;56357;52.304;4.870;2023-01-01T11:36:22;5.15;;;0.70;;
69244;SDS011;56357;52.304;4.870;2023-01-01T11:39:05;7.95;;;1.05;;
69244;SDS011;56357;52.304;4.870;2023-01-01T11:41:51;4.80;;;1.13;;
69244;SDS011;56357;52.304;4.870;2023-01-01T11:44:24;5.60;;;0.93;;
69244;SDS011;56357;52.304;4.870;2023-01-01T11:46:57;5.43;;;0.98;;
69244;SDS011;56357;52.304;4.870;2023-01-01T11:49:25;7.28;;;1.13;;
69244;SDS011;56357;52.304;4.870;2023-01-01T11:51:55;7.53;;;0.75;;
69244;SDS011;56357;52.304;4.870;2023-01-01T11:54:24;6.00;;;0.80;;
69244;SDS011;56357;52.304;4.870;2023-01-01T11:56:59;5.45;;;1.10;;
69244;SDS011;56357;52.304;4.870;2023-01-01T11:59:46;6.13;;;0.90;;
69244;SDS011;56357;52.304;4.870;2023-01-01T12:02:22;5.20;;;1.20;;
69244;SDS011;56357;52.304;4.870;2023-01-01T12:05:23;5.32;;;0.80;;
69244;SDS011;56357;52.304;4.870;2023-01-01T12:07:56;5.72;;;1.00;;
69244;SDS011;56357;52.304;4.870;2023-01-01T12:10:32;5.20;;;1.10;;
69244;SDS011;56357;52.304;4.870;2023-01-01T12:13:16;6.80;;;1.00;;
69244;SDS011;56357;52.304;4.870;2023-01-01T12:18:59;6.43;;;0.85;;
69244;SDS011;56357;52.304;4.870;2023-01-01T12:21:30;6.30;;;1.25;;
69244;SDS011;56357;52.304;4.870;2023-01-01T12:24:00;8.48;;;1.38;;
69244;SDS011;56357;52.304;4.870;2023-01-01T12:26:31;6.65;;;1.10;;
69244;SDS011;56357;52.304;4.870;2023-01-01T12:37:21;6.32;;;1.20;;
69244;SDS011;56357;52.304;4.870;2023-01-01T12:42:35;6.38;;;0.68;;
69244;SDS011;56357;52.304;4.870;2023-01-01T12:53:52;6.40;;;0.85;;
69244;SDS011;56357;52.304;4.870;2023-01-01T12:56:33;4.53;;;0.95;;
69244;SDS011;56357;52.304;4.870;2023-01-01T12:59:08;7.25;;;0.88;;
69244;SDS011;56357;52.304;4.870;2023-01-01T13:01:38;7.75;;;1.35;;
69244;SDS011;56357;52.304;4.870;2023-01-01T13:04:11;5.72;;;0.95;;
69244;SDS011;56357;52.304;4.870;2023-01-01T13:09:31;6.57;;;0.75;;
69244;SDS011;56357;52.304;4.870;2023-01-01T13:12:03;3.97;;;0.82;;
69244;SDS011;56357;52.304;4.870;2023-01-01T13:14:37;5.50;;;0.80;;
69244;SDS011;56357;52.304;4.870;2023-01-01T13:22:35;5.90;;;1.20;;
69244;SDS011;56357;52.304;4.870;2023-01-01T13:44:22;4.75;;;1.08;;
69244;SDS011;56357;52.304;4.870;2023-01-01T13:46:54;6.22;;;0.95;;
69244;SDS011;56357;52.304;4.870;2023-01-01T14:01:28;5.22;;;0.90;;
69244;SDS011;56357;52.304;4.870;2023-01-01T14:04:32;6.22;;;1.02;;
69244;SDS011;56357;52.304;4.870;2023-01-01T14:07:09;6.72;;;0.90;;
69244;SDS011;56357;52.304;4.870;2023-01-01T14:09:43;6.75;;;1.27;;
69244;SDS011;56357;52.304;4.870;2023-01-01T14:12:14;6.13;;;0.90;;
69244;SDS011;56357;52.304;4.870;2023-01-01T14:14:42;5.20;;;1.02;;
69244;SDS011;56357;52.304;4.870;2023-01-01T14:17:10;7.28;;;1.45;;
69244;SDS011;56357;52.304;4.870;2023-01-01T14:19:40;5.55;;;0.60;;
69244;SDS011;56357;52.304;4.870;2023-01-01T14:22:08;4.35;;;0.75;;
69244;SDS011;56357;52.304;4.870;2023-01-01T14:24:38;5.20;;;1.00;;
69244;SDS011;56357;52.304;4.870;2023-01-01T14:27:08;5.15;;;0.88;;
69244;SDS011;56357;52.304;4.870;2023-01-01T14:29:40;5.90;;;1.10;;
69244;SDS011;56357;52.304;4.870;2023-01-01T14:32:17;7.63;;;1.05;;
69244;SDS011;56357;52.304;4.870;2023-01-01T14:34:57;5.90;;;0.90;;
69244;SDS011;56357;52.304;4.870;2023-01-01T14:37:25;4.53;;;0.88;;
69244;SDS011;56357;52.304;4.870;2023-01-01T14:40:04;5.15;;;0.80;;
69244;SDS011;56357;52.304;4.870;2023-01-01T14:42:31;5.75;;;0.90;;
69244;SDS011;56357;52.304;4.870;2023-01-01T14:44:59;5.30;;;0.90;;
69244;SDS011;56357;52.304;4.870;2023-01-01T14:47:26;6.13;;;0.82;;
69244;SDS011;56357;52.304;4.870;2023-01-01T14:50:10;4.28;;;1.15;;
69244;SDS011;56357;52.304;4.870;2023-01-01T14:52:42;5.47;;;0.82;;
69244;SDS011;56357;52.304;4.870;2023-01-01T14:55:11;6.30;;;1.00;;
69244;SDS011;56357;52.304;4.870;2023-01-01T14:57:44;5.70;;;1.10;;
69244;SDS011;56357;52.304;4.870;2023-01-01T15:00:15;4.53;;;1.05;;
69244;SDS011;56357;52.304;4.870;2023-01-01T15:02:47;6.90;;;1.15;;
69244;SDS011;56357;52.304;4.870;2023-01-01T15:05:30;5.93;;;1.05;;
69244;SDS011;56357;52.304;4.870;2023-01-01T15:07:59;5.95;;;1.00;;
69244;SDS011;56357;52.304;4.870;2023-01-01T15:10:28;4.85;;;0.85;;
69244;SDS011;56357;52.304;4.870;2023-01-01T15:12:57;6.38;;;0.85;;
69244;SDS011;56357;52.304;4.870;2023-01-01T15:15:37;4.60;;;0.73;;
69244;SDS011;56357;52.304;4.870;2023-01-01T15:18:51;4.45;;;0.90;;
69244;SDS011;56357;52.304;4.870;2023-01-01T15:23:58;6.10;;;1.08;;
69244;SDS011;56357;52.304;4.870;2023-01-01T15:26:32;6.30;;;1.10;;
69244;SDS011;56357;52.304;4.870;2023-01-01T15:29:06;4.55;;;1.02;;
69244;SDS011;56357;52.304;4.870;2023-01-01T15:31:35;6.30;;;1.08;;
69244;SDS011;56357;52.304;4.870;2023-01-01T15:34:04;6.00;;;1.00;;
69244;SDS011;56357;52.304;4.870;2023-01-01T15:36:32;6.20;;;0.73;;
69244;SDS011;56357;52.304;4.870;2023-01-01T15:38:58;4.18;;;0.98;;
69244;SDS011;56357;52.304;4.870;2023-01-01T15:41:36;5.45;;;0.93;;
69244;SDS011;56357;52.304;4.870;2023-01-01T15:44:17;5.03;;;0.90;;
69244;SDS011;56357;52.304;4.870;2023-01-01T15:46:50;4.50;;;0.75;;
69244;SDS011;56357;52.304;4.870;2023-01-01T15:49:27;4.65;;;0.88;;
69244;SDS011;56357;52.304;4.870;2023-01-01T15:51:55;7.10;;;0.83;;
69244;SDS011;56357;52.304;4.870;2023-01-01T15:54:26;5.95;;;1.02;;
69244;SDS011;56357;52.304;4.870;2023-01-01T15:56:52;6.97;;;0.93;;
69244;SDS011;56357;52.304;4.870;2023-01-01T15:59:26;6.40;;;1.02;;
69244;SDS011;56357;52.304;4.870;2023-01-01T16:02:04;7.40;;;1.05;;
69244;SDS011;56357;52.304;4.870;2023-01-01T16:04:43;6.83;;;1.40;;
69244;SDS011;56357;52.304;4.870;2023-01-01T16:07:15;5.82;;;0.90;;
69244;SDS011;56357;52.304;4.870;2023-01-01T16:09:47;7.45;;;1.10;;
69244;SDS011;56357;52.304;4.870;2023-01-01T16:12:15;4.70;;;1.00;;
69244;SDS011;56357;52.304;4.870;2023-01-01T16:14:42;6.65;;;0.80;;
69244;SDS011;56357;52.304;4.870;2023-01-01T16:17:12;5.03;;;1.13;;
69244;SDS011;56357;52.304;4.870;2023-01-01T16:19:41;7.05;;;1.33;;
69244;SDS011;56357;52.304;4.870;2023-01-01T16:22:15;5.75;;;1.05;;
69244;SDS011;56357;52.304;4.870;2023-01-01T16:24:44;5.55;;;0.80;;
69244;SDS011;56357;52.304;4.870;2023-01-01T16:27:10;5.75;;;1.30;;
69244;SDS011;56357;52.304;4.870;2023-01-01T16:29:37;5.78;;;1.25;;
69244;SDS011;56357;52.304;4.870;2023-01-01T16:32:04;6.20;;;0.98;;
69244;SDS011;56357;52.304;4.870;2023-01-01T16:34:31;6.85;;;1.02;;
69244;SDS011;56357;52.304;4.870;2023-01-01T16:36:57;6.57;;;1.40;;
69244;SDS011;56357;52.304;4.870;2023-01-01T16:39:24;6.22;;;1.25;;
69244;SDS011;56357;52.304;4.870;2023-01-01T16:41:50;6.33;;;1.10;;
69244;SDS011;56357;52.304;4.870;2023-01-01T16:44:17;4.50;;;1.02;;
69244;SDS011;56357;52.304;4.870;2023-01-01T16:46:43;6.20;;;1.17;;
69244;SDS011;56357;52.304;4.870;2023-01-01T16:49:10;4.82;;;0.75;;
69244;SDS011;56357;52.304;4.870;2023-01-01T16:51:36;5.93;;;1.08;;
69244;SDS011;56357;52.304;4.870;2023-01-01T16:54:02;7.00;;;1.40;;
69244;SDS011;56357;52.304;4.870;2023-01-01T16:56:29;6.07;;;1.27;;
69244;SDS011;56357;52.304;4.870;2023-01-01T16:58:55;5.28;;;0.93;;
69244;SDS011;56357;52.304;4.870;2023-01-01T17:01:22;5.57;;;0.95;;
69244;SDS011;56357;52.304;4.870;2023-01-01T17:03:49;5.07;;;1.23;;
69244;SDS011;56357;52.304;4.870;2023-01-01T17:06:17;8.05;;;1.40;;